YBCS

Cairns International Airport

Cairns, Australia
TAF YBCS 210452Z 2106/2206 12014KT 9999 FEW030 SCT050 FM210800 15008KT 9999 SCT025
Issued Valid From Valid To
Aug-21 @ 04:52 UTC
(13 hours ago)
Aug-21 @ 06:00 UTC
(12 hours ago)
Aug-22 @ 06:00 UTC
(in 12 hours)
Expired Click to View Aug-21 @ 06:00 to Aug-21 @ 08:00
TAF YBCS 210452Z 2106/2206 12014KT 9999 FEW030 SCT050
Wind Visibility Clouds
120° at 14 knots 10,000+ meters
  • Few at 3,000' AGL
  • Scattered at 5,000' AGL
From Aug-21 @ 08:00 to Aug-22 @ 06:00
FM210800 15008KT 9999 SCT025
Wind Visibility Clouds
150° at 8 knots 10,000+ meters
  • Scattered at 2,500' AGL
TAF YBCS 210452Z 2106/2206 12014KT 9999 FEW030 SCT050 FM210800 15008KT 9999 SCT025
Issued Aug-21 @ 04:52 UTC
(13 hours ago)
Valid From Aug-21 @ 06:00 UTC
(12 hours ago)
Valid To Aug-22 @ 06:00 UTC
(in 12 hours)
Aug-21 @ 06:00 - Aug-21 @ 08:00
Wind Visibility
120° at 14 knots 10,000+ meters
Clouds
  • Few at 3,000' AGL
  • Scattered at 5,000' AGL
From Aug-21 @ 08:00 - Aug-22 @ 06:00
Wind Visibility
150° at 8 knots 10,000+ meters
Clouds
  • Scattered at 2,500' AGL